sensor_id;sensor_type;location;lat;lon;timestamp;pressure;altitude;pressure_sealevel;temperature;humidity
13867;BME280;7003;46.982;15.248;2023-08-20T00:01:12;97618.09;;;19.65;100.00
13867;BME280;7003;46.982;15.248;2023-08-20T00:03:40;97610.66;;;19.54;100.00
13867;BME280;7003;46.982;15.248;2023-08-20T00:06:13;97609.53;;;19.55;100.00
13867;BME280;7003;46.982;15.248;2023-08-20T00:08:41;97607.13;;;19.47;100.00
13867;BME280;7003;46.982;15.248;2023-08-20T00:11:08;97613.63;;;19.42;100.00
13867;BME280;7003;46.982;15.248;2023-08-20T00:13:35;97607.53;;;19.49;100.00
13867;BME280;7003;46.982;15.248;2023-08-20T00:16:03;97603.63;;;19.46;100.00
13867;BME280;7003;46.982;15.248;2023-08-20T00:18:30;97604.94;;;19.59;100.00
13867;BME280;7003;46.982;15.248;2023-08-20T00:20:58;97604.59;;;19.65;100.00
13867;BME280;7003;46.982;15.248;2023-08-20T00:23:30;97606.47;;;19.60;100.00
13867;BME280;7003;46.982;15.248;2023-08-20T00:26:00;97610.41;;;19.67;100.00
13867;BME280;7003;46.982;15.248;2023-08-20T00:28:30;97612.00;;;19.75;100.00
13867;BME280;7003;46.982;15.248;2023-08-20T00:31:01;97613.53;;;19.76;100.00
13867;BME280;7003;46.982;15.248;2023-08-20T00:33:31;97612.41;;;19.77;100.00
13867;BME280;7003;46.982;15.248;2023-08-20T00:35:58;97605.91;;;19.81;100.00
13867;BME280;7003;46.982;15.248;2023-08-20T00:38:25;97614.38;;;19.80;100.00
13867;BME280;7003;46.982;15.248;2023-08-20T00:40:55;97615.94;;;19.84;100.00
13867;BME280;7003;46.982;15.248;2023-08-20T00:43:25;97610.13;;;19.82;100.00
13867;BME280;7003;46.982;15.248;2023-08-20T00:45:54;97605.56;;;19.90;100.00
13867;BME280;7003;46.982;15.248;2023-08-20T00:48:21;97615.19;;;19.91;100.00
13867;BME280;7003;46.982;15.248;2023-08-20T00:50:50;97612.09;;;19.85;100.00
13867;BME280;7003;46.982;15.248;2023-08-20T00:53:18;97614.69;;;19.75;100.00
13867;BME280;7003;46.982;15.248;2023-08-20T00:55:47;97611.59;;;19.73;100.00
13867;BME280;7003;46.982;15.248;2023-08-20T00:58:18;97616.16;;;19.65;100.00
13867;BME280;7003;46.982;15.248;2023-08-20T01:00:47;97616.88;;;19.58;100.00
13867;BME280;7003;46.982;15.248;2023-08-20T01:03:17;97617.31;;;19.64;100.00
13867;BME280;7003;46.982;15.248;2023-08-20T01:05:51;97618.75;;;19.54;100.00
13867;BME280;7003;46.982;15.248;2023-08-20T01:08:29;97621.13;;;19.59;100.00
13867;BME280;7003;46.982;15.248;2023-08-20T01:11:12;97616.47;;;19.56;100.00
13867;BME280;7003;46.982;15.248;2023-08-20T01:13:44;97613.78;;;19.56;100.00
13867;BME280;7003;46.982;15.248;2023-08-20T01:16:12;97616.53;;;19.64;100.00
13867;BME280;7003;46.982;15.248;2023-08-20T01:18:39;97621.50;;;19.58;100.00
13867;BME280;7003;46.982;15.248;2023-08-20T01:21:20;97607.63;;;19.59;100.00
13867;BME280;7003;46.982;15.248;2023-08-20T01:24:10;97624.16;;;19.54;100.00
13867;BME280;7003;46.982;15.248;2023-08-20T01:27:03;97615.41;;;19.65;100.00
13867;BME280;7003;46.982;15.248;2023-08-20T01:29:36;97618.53;;;19.70;100.00
13867;BME280;7003;46.982;15.248;2023-08-20T01:32:07;97618.16;;;19.75;100.00
13867;BME280;7003;46.982;15.248;2023-08-20T01:34:35;97613.13;;;19.70;100.00
13867;BME280;7003;46.982;15.248;2023-08-20T01:37:02;97619.59;;;19.58;100.00
13867;BME280;7003;46.982;15.248;2023-08-20T01:39:29;97626.13;;;19.57;100.00
13867;BME280;7003;46.982;15.248;2023-08-20T01:41:56;97627.56;;;19.48;100.00
13867;BME280;7003;46.982;15.248;2023-08-20T01:44:24;97628.75;;;19.50;100.00
13867;BME280;7003;46.982;15.248;2023-08-20T01:46:54;97624.81;;;19.44;100.00
13867;BME280;7003;46.982;15.248;2023-08-20T01:49:22;97627.78;;;19.32;100.00
13867;BME280;7003;46.982;15.248;2023-08-20T01:51:49;97623.88;;;19.30;100.00
13867;BME280;7003;46.982;15.248;2023-08-20T01:54:18;97629.31;;;19.33;100.00
13867;BME280;7003;46.982;15.248;2023-08-20T01:56:48;97627.56;;;19.48;100.00
13867;BME280;7003;46.982;15.248;2023-08-20T01:59:17;97628.25;;;19.41;100.00
13867;BME280;7003;46.982;15.248;2023-08-20T02:01:45;97622.94;;;19.48;100.00
13867;BME280;7003;46.982;15.248;2023-08-20T02:04:14;97614.75;;;19.41;100.00
13867;BME280;7003;46.982;15.248;2023-08-20T02:06:43;97623.28;;;19.43;100.00
13867;BME280;7003;46.982;15.248;2023-08-20T02:09:10;97622.50;;;19.46;100.00
13867;BME280;7003;46.982;15.248;2023-08-20T02:11:38;97624.16;;;19.51;100.00
13867;BME280;7003;46.982;15.248;2023-08-20T02:14:07;97614.41;;;19.46;100.00
13867;BME280;7003;46.982;15.248;2023-08-20T02:16:35;97614.00;;;19.44;100.00
13867;BME280;7003;46.982;15.248;2023-08-20T02:19:03;97618.63;;;19.44;100.00
13867;BME280;7003;46.982;15.248;2023-08-20T02:21:34;97620.47;;;19.36;100.00
13867;BME280;7003;46.982;15.248;2023-08-20T02:24:05;97617.72;;;19.29;100.00
13867;BME280;7003;46.982;15.248;2023-08-20T02:26:32;97611.94;;;19.31;100.00
13867;BME280;7003;46.982;15.248;2023-08-20T02:29:03;97614.22;;;19.25;100.00
13867;BME280;7003;46.982;15.248;2023-08-20T02:31:31;97620.69;;;19.17;100.00
13867;BME280;7003;46.982;15.248;2023-08-20T02:33:59;97613.78;;;19.19;100.00
13867;BME280;7003;46.982;15.248;2023-08-20T02:36:27;97614.56;;;19.20;100.00
13867;BME280;7003;46.982;15.248;2023-08-20T02:38:57;97616.41;;;19.12;100.00
13867;BME280;7003;46.982;15.248;2023-08-20T02:41:27;97607.44;;;19.05;100.00
13867;BME280;7003;46.982;15.248;2023-08-20T02:43:56;97616.00;;;19.14;100.00
13867;BME280;7003;46.982;15.248;2023-08-20T02:46:24;97614.56;;;19.20;100.00
13867;BME280;7003;46.982;15.248;2023-08-20T02:48:51;97614.38;;;19.06;100.00
13867;BME280;7003;46.982;15.248;2023-08-20T02:51:20;97617.41;;;19.01;100.00
13867;BME280;7003;46.982;15.248;2023-08-20T02:53:48;97610.81;;;18.95;100.00
13867;BME280;7003;46.982;15.248;2023-08-20T02:56:19;97608.84;;;18.92;100.00
13867;BME280;7003;46.982;15.248;2023-08-20T02:58:49;97615.44;;;18.98;100.00
13867;BME280;7003;46.982;15.248;2023-08-20T03:01:20;97620.41;;;18.92;100.00
13867;BME280;7003;46.982;15.248;2023-08-20T03:03:47;97619.50;;;18.81;100.00
13867;BME280;7003;46.982;15.248;2023-08-20T03:06:14;97617.88;;;18.73;100.00
13867;BME280;7003;46.982;15.248;2023-08-20T03:08:45;97626.34;;;18.75;100.00
13867;BME280;7003;46.982;15.248;2023-08-20T03:11:12;97626.72;;;18.73;100.00
13867;BME280;7003;46.982;15.248;2023-08-20T03:13:41;97622.09;;;18.74;100.00
13867;BME280;7003;46.982;15.248;2023-08-20T03:16:10;97628.59;;;18.69;100.00
13867;BME280;7003;46.982;15.248;2023-08-20T03:18:37;97624.69;;;18.67;100.00
13867;BME280;7003;46.982;15.248;2023-08-20T03:21:04;97623.66;;;18.75;100.00
13867;BME280;7003;46.982;15.248;2023-08-20T03:23:31;97622.78;;;18.67;100.00
13867;BME280;7003;46.982;15.248;2023-08-20T03:26:00;97629.22;;;18.59;100.00
13867;BME280;7003;46.982;15.248;2023-08-20T03:28:28;97625.00;;;18.58;100.00
13867;BME280;7003;46.982;15.248;2023-08-20T03:30:59;97625.28;;;18.53;100.00
13867;BME280;7003;46.982;15.248;2023-08-20T03:33:26;97628.28;;;18.48;100.00
13867;BME280;7003;46.982;15.248;2023-08-20T03:35:53;97632.13;;;18.47;100.00
13867;BME280;7003;46.982;15.248;2023-08-20T03:38:24;97628.19;;;18.41;100.00
13867;BME280;7003;46.982;15.248;2023-08-20T03:40:54;97633.22;;;18.42;100.00
13867;BME280;7003;46.982;15.248;2023-08-20T03:43:22;97625.91;;;18.43;100.00
13867;BME280;7003;46.982;15.248;2023-08-20T03:45:50;97635.41;;;18.33;100.00
13867;BME280;7003;46.982;15.248;2023-08-20T03:48:22;97632.28;;;18.31;100.00
13867;BME280;7003;46.982;15.248;2023-08-20T03:50:50;97644.91;;;18.27;100.00
13867;BME280;7003;46.982;15.248;2023-08-20T03:53:19;97646.56;;;18.35;100.00
13867;BME280;7003;46.982;15.248;2023-08-20T03:55:50;97644.97;;;18.31;100.00
13867;BME280;7003;46.982;15.248;2023-08-20T03:58:18;97644.03;;;18.46;100.00
13867;BME280;7003;46.982;15.248;2023-08-20T04:00:48;97642.03;;;18.39;100.00
13867;BME280;7003;46.982;15.248;2023-08-20T04:03:18;97646.84;;;18.27;100.00
13867;BME280;7003;46.982;15.248;2023-08-20T04:05:51;97655.38;;;18.32;100.00
13867;BME280;7003;46.982;15.248;2023-08-20T04:08:20;97653.94;;;18.38;100.00
13867;BME280;7003;46.982;15.248;2023-08-20T04:10:50;97654.63;;;18.32;100.00
13867;BME280;7003;46.982;15.248;2023-08-20T04:13:21;97656.59;;;18.35;100.00
13867;BME280;7003;46.982;15.248;2023-08-20T04:15:49;97658.88;;;18.33;100.00
13867;BME280;7003;46.982;15.248;2023-08-20T04:18:18;97657.72;;;18.34;100.00
13867;BME280;7003;46.982;15.248;2023-08-20T04:20:52;97670.19;;;18.19;100.00
13867;BME280;7003;46.982;15.248;2023-08-20T04:23:20;97660.59;;;18.22;100.00
13867;BME280;7003;46.982;15.248;2023-08-20T04:25:48;97663.31;;;18.22;100.00
13867;BME280;7003;46.982;15.248;2023-08-20T04:28:19;97662.94;;;18.23;100.00
13867;BME280;7003;46.982;15.248;2023-08-20T04:30:47;97665.84;;;18.11;100.00
13867;BME280;7003;46.982;15.248;2023-08-20T04:33:16;97665.78;;;18.07;100.00
13867;BME280;7003;46.982;15.248;2023-08-20T04:35:44;97673.94;;;18.11;100.00
13867;BME280;7003;46.982;15.248;2023-08-20T04:38:14;97667.56;;;18.23;100.00
13867;BME280;7003;46.982;15.248;2023-08-20T04:40:42;97674.25;;;18.32;100.00
13867;BME280;7003;46.982;15.248;2023-08-20T04:43:13;97682.69;;;18.31;100.00
13867;BME280;7003;46.982;15.248;2023-08-20T04:45:41;97671.28;;;18.41;100.00
13867;BME280;7003;46.982;15.248;2023-08-20T04:48:09;97675.06;;;18.36;100.00
13867;BME280;7003;46.982;15.248;2023-08-20T04:50:37;97679.13;;;18.50;100.00
13867;BME280;7003;46.982;15.248;2023-08-20T04:53:06;97678.47;;;18.56;100.00
13867;BME280;7003;46.982;15.248;2023-08-20T04:55:38;97670.63;;;18.48;100.00
13867;BME280;7003;46.982;15.248;2023-08-20T04:58:07;97663.72;;;18.50;100.00
13867;BME280;7003;46.982;15.248;2023-08-20T05:00:38;97667.56;;;18.49;100.00
13867;BME280;7003;46.982;15.248;2023-08-20T05:03:08;97666.00;;;18.48;100.00
13867;BME280;7003;46.982;15.248;2023-08-20T05:05:39;97675.78;;;18.56;100.00
13867;BME280;7003;46.982;15.248;2023-08-20T05:08:10;97674.41;;;18.69;100.00
13867;BME280;7003;46.982;15.248;2023-08-20T05:10:42;97683.59;;;18.95;100.00
13867;BME280;7003;46.982;15.248;2023-08-20T05:13:12;97677.53;;;19.05;100.00
13867;BME280;7003;46.982;15.248;2023-08-20T05:15:41;97684.91;;;19.08;100.00
13867;BME280;7003;46.982;15.248;2023-08-20T05:18:10;97686.78;;;19.04;100.00
13867;BME280;7003;46.982;15.248;2023-08-20T05:20:40;97686.25;;;19.25;100.00
13867;BME280;7003;46.982;15.248;2023-08-20T05:23:08;97688.13;;;19.50;100.00
13867;BME280;7003;46.982;15.248;2023-08-20T05:25:41;97688.88;;;19.88;100.00
13867;BME280;7003;46.982;15.248;2023-08-20T05:28:09;97690.28;;;20.22;100.00
13867;BME280;7003;46.982;15.248;2023-08-20T05:30:40;97699.84;;;20.60;100.00
13867;BME280;7003;46.982;15.248;2023-08-20T05:33:10;97691.91;;;20.92;100.00
13867;BME280;7003;46.982;15.248;2023-08-20T05:35:38;97701.72;;;21.22;100.00
13867;BME280;7003;46.982;15.248;2023-08-20T05:38:09;97700.66;;;21.44;100.00
13867;BME280;7003;46.982;15.248;2023-08-20T05:40:37;97705.72;;;21.63;100.00
13867;BME280;7003;46.982;15.248;2023-08-20T05:43:07;97710.38;;;21.73;100.00
13867;BME280;7003;46.982;15.248;2023-08-20T05:45:36;97710.78;;;21.89;100.00
13867;BME280;7003;46.982;15.248;2023-08-20T05:48:04;97715.03;;;21.94;100.00
13867;BME280;7003;46.982;15.248;2023-08-20T05:50:32;97717.41;;;22.10;100.00
13867;BME280;7003;46.982;15.248;2023-08-20T05:53:04;97716.63;;;22.34;100.00
13867;BME280;7003;46.982;15.248;2023-08-20T05:55:34;97724.78;;;22.34;100.00
13867;BME280;7003;46.982;15.248;2023-08-20T05:58:07;97726.69;;;22.51;100.00
13867;BME280;7003;46.982;15.248;2023-08-20T06:00:35;97734.06;;;22.76;100.00
13867;BME280;7003;46.982;15.248;2023-08-20T06:03:06;97730.94;;;22.74;100.00
13867;BME280;7003;46.982;15.248;2023-08-20T06:05:37;97736.75;;;22.83;100.00
13867;BME280;7003;46.982;15.248;2023-08-20T06:08:05;97738.25;;;23.01;100.00
13867;BME280;7003;46.982;15.248;2023-08-20T06:10:34;97744.81;;;23.11;100.00
13867;BME280;7003;46.982;15.248;2023-08-20T06:13:03;97749.47;;;23.00;100.00
13867;BME280;7003;46.982;15.248;2023-08-20T06:15:32;97752.53;;;23.20;100.00
13867;BME280;7003;46.982;15.248;2023-08-20T06:18:01;97747.41;;;23.43;100.00
13867;BME280;7003;46.982;15.248;2023-08-20T06:20:29;97753.66;;;23.26;100.00
13867;BME280;7003;46.982;15.248;2023-08-20T06:22:58;97752.91;;;23.18;100.00
13867;BME280;7003;46.982;15.248;2023-08-20T06:25:25;97750.53;;;23.31;100.00
13867;BME280;7003;46.982;15.248;2023-08-20T06:27:53;97748.56;;;23.49;100.00
13867;BME280;7003;46.982;15.248;2023-08-20T06:30:21;97750.03;;;23.68;100.00
13867;BME280;7003;46.982;15.248;2023-08-20T06:32:50;97749.56;;;23.80;100.00
13867;BME280;7003;46.982;15.248;2023-08-20T06:35:17;97748.63;;;24.04;100.00
13867;BME280;7003;46.982;15.248;2023-08-20T06:37:45;97752.06;;;24.15;100.00
13867;BME280;7003;46.982;15.248;2023-08-20T06:40:12;97752.69;;;24.37;100.00
13867;BME280;7003;46.982;15.248;2023-08-20T06:42:43;97752.88;;;24.61;100.00
13867;BME280;7003;46.982;15.248;2023-08-20T06:45:14;97755.22;;;24.62;100.00
13867;BME280;7003;46.982;15.248;2023-08-20T06:47:41;97762.06;;;24.77;100.00
13867;BME280;7003;46.982;15.248;2023-08-20T06:50:11;97756.53;;;24.84;100.00
13867;BME280;7003;46.982;15.248;2023-08-20T06:52:40;97753.78;;;24.88;100.00
13867;BME280;7003;46.982;15.248;2023-08-20T06:55:10;97761.38;;;25.07;100.00
13867;BME280;7003;46.982;15.248;2023-08-20T06:57:40;97755.31;;;25.26;100.00
13867;BME280;7003;46.982;15.248;2023-08-20T07:00:08;97748.72;;;25.58;100.00
13867;BME280;7003;46.982;15.248;2023-08-20T07:02:38;97755.59;;;25.70;100.00
13867;BME280;7003;46.982;15.248;2023-08-20T07:05:06;97766.75;;;25.79;100.00
13867;BME280;7003;46.982;15.248;2023-08-20T07:07:36;97757.25;;;25.90;100.00
13867;BME280;7003;46.982;15.248;2023-08-20T07:10:04;97762.91;;;26.03;100.00
13867;BME280;7003;46.982;15.248;2023-08-20T07:12:32;97768.19;;;26.14;100.00
13867;BME280;7003;46.982;15.248;2023-08-20T07:15:02;97763.28;;;26.32;100.00
13867;BME280;7003;46.982;15.248;2023-08-20T07:17:33;97769.97;;;26.27;100.00
13867;BME280;7003;46.982;15.248;2023-08-20T07:20:00;97764.34;;;26.38;100.00
13867;BME280;7003;46.982;15.248;2023-08-20T07:22:31;97764.66;;;26.43;100.00
13867;BME280;7003;46.982;15.248;2023-08-20T07:25:02;97768.31;;;26.57;100.00
13867;BME280;7003;46.982;15.248;2023-08-20T07:27:30;97762.06;;;26.79;100.00
13867;BME280;7003;46.982;15.248;2023-08-20T07:30:00;97763.84;;;27.13;100.00
13867;BME280;7003;46.982;15.248;2023-08-20T07:32:28;97758.50;;;27.26;100.00
13867;BME280;7003;46.982;15.248;2023-08-20T07:34:56;97759.22;;;27.10;100.00
13867;BME280;7003;46.982;15.248;2023-08-20T07:37:26;97755.84;;;27.22;100.00
13867;BME280;7003;46.982;15.248;2023-08-20T07:39:54;97760.03;;;27.27;100.00
13867;BME280;7003;46.982;15.248;2023-08-20T07:42:23;97755.59;;;27.56;100.00
13867;BME280;7003;46.982;15.248;2023-08-20T07:44:51;97756.63;;;27.23;100.00
13867;BME280;7003;46.982;15.248;2023-08-20T07:47:18;97760.19;;;27.39;100.00
13867;BME280;7003;46.982;15.248;2023-08-20T07:49:46;97755.69;;;27.49;100.00
13867;BME280;7003;46.982;15.248;2023-08-20T07:52:21;97752.19;;;27.68;100.00
13867;BME280;7003;46.982;15.248;2023-08-20T07:54:48;97749.41;;;27.52;100.00
13867;BME280;7003;46.982;15.248;2023-08-20T07:57:16;97754.47;;;27.53;100.00
13867;BME280;7003;46.982;15.248;2023-08-20T07:59:48;97742.72;;;27.73;100.00
13867;BME280;7003;46.982;15.248;2023-08-20T08:02:15;97753.69;;;27.53;100.00
13867;BME280;7003;46.982;15.248;2023-08-20T08:04:43;97750.19;;;27.33;96.36
13867;BME280;7003;46.982;15.248;2023-08-20T08:07:13;97756.91;;;27.48;100.00
13867;BME280;7003;46.982;15.248;2023-08-20T08:09:41;97750.94;;;27.89;100.00
13867;BME280;7003;46.982;15.248;2023-08-20T08:12:12;97744.84;;;28.01;98.53
13867;BME280;7003;46.982;15.248;2023-08-20T08:14:39;97750.50;;;28.10;88.03
13867;BME280;7003;46.982;15.248;2023-08-20T08:17:11;97746.41;;;27.82;90.51
13867;BME280;7003;46.982;15.248;2023-08-20T08:19:43;97750.44;;;27.78;91.69
13867;BME280;7003;46.982;15.248;2023-08-20T08:22:11;97750.75;;;27.64;91.95
13867;BME280;7003;46.982;15.248;2023-08-20T08:24:38;97754.84;;;27.52;86.79
13867;BME280;7003;46.982;15.248;2023-08-20T08:27:10;97755.63;;;27.72;99.10
13867;BME280;7003;46.982;15.248;2023-08-20T08:29:40;97751.72;;;27.89;85.33
13867;BME280;7003;46.982;15.248;2023-08-20T08:32:08;97752.31;;;28.33;81.26
13867;BME280;7003;46.982;15.248;2023-08-20T08:34:37;97739.03;;;28.64;81.49
13867;BME280;7003;46.982;15.248;2023-08-20T08:37:05;97740.22;;;28.79;75.03
13867;BME280;7003;46.982;15.248;2023-08-20T08:39:32;97742.28;;;29.04;81.55
13867;BME280;7003;46.982;15.248;2023-08-20T08:42:04;97737.19;;;28.90;80.47
13867;BME280;7003;46.982;15.248;2023-08-20T08:44:34;97736.19;;;28.84;72.26
13867;BME280;7003;46.982;15.248;2023-08-20T08:47:04;97734.56;;;29.15;73.49
13867;BME280;7003;46.982;15.248;2023-08-20T08:49:33;97739.28;;;29.27;73.19
13867;BME280;7003;46.982;15.248;2023-08-20T08:52:06;97728.44;;;29.65;73.70
13867;BME280;7003;46.982;15.248;2023-08-20T08:54:36;97732.47;;;29.48;68.60
13867;BME280;7003;46.982;15.248;2023-08-20T08:57:06;97736.75;;;29.20;78.57
13867;BME280;7003;46.982;15.248;2023-08-20T08:59:33;97726.56;;;29.50;74.47
13867;BME280;7003;46.982;15.248;2023-08-20T09:02:01;97733.13;;;29.11;72.82
13867;BME280;7003;46.982;15.248;2023-08-20T09:04:31;97735.59;;;29.34;74.59
13867;BME280;7003;46.982;15.248;2023-08-20T09:06:58;97733.41;;;29.00;73.64
13867;BME280;7003;46.982;15.248;2023-08-20T09:09:29;97739.34;;;28.66;71.21
13867;BME280;7003;46.982;15.248;2023-08-20T09:12:00;97740.41;;;28.72;75.36
13867;BME280;7003;46.982;15.248;2023-08-20T09:14:30;97734.84;;;29.04;74.22
13867;BME280;7003;46.982;15.248;2023-08-20T09:16:59;97728.00;;;29.25;61.01
13867;BME280;7003;46.982;15.248;2023-08-20T09:19:28;97742.69;;;29.85;65.04
13867;BME280;7003;46.982;15.248;2023-08-20T09:21:58;97745.66;;;29.91;56.76
13867;BME280;7003;46.982;15.248;2023-08-20T09:24:32;97744.34;;;30.21;58.42
13867;BME280;7003;46.982;15.248;2023-08-20T09:27:03;97754.56;;;30.33;56.82
13867;BME280;7003;46.982;15.248;2023-08-20T09:29:32;97744.75;;;30.45;58.54
13867;BME280;7003;46.982;15.248;2023-08-20T09:32:01;97755.97;;;30.38;61.17
13867;BME280;7003;46.982;15.248;2023-08-20T09:34:37;97758.25;;;30.65;63.53
13867;BME280;7003;46.982;15.248;2023-08-20T09:37:08;97757.28;;;30.58;58.47
13867;BME280;7003;46.982;15.248;2023-08-20T09:39:41;97753.91;;;30.89;63.47
13867;BME280;7003;46.982;15.248;2023-08-20T09:42:09;97756.13;;;30.81;61.19
13867;BME280;7003;46.982;15.248;2023-08-20T09:44:39;97750.66;;;31.03;58.37
13867;BME280;7003;46.982;15.248;2023-08-20T09:47:09;97755.25;;;31.06;57.07
13867;BME280;7003;46.982;15.248;2023-08-20T09:49:38;97746.81;;;31.01;59.78
13867;BME280;7003;46.982;15.248;2023-08-20T09:52:07;97748.97;;;31.06;57.46
13867;BME280;7003;46.982;15.248;2023-08-20T09:54:47;97749.41;;;30.82;59.67
13867;BME280;7003;46.982;15.248;2023-08-20T09:57:28;97750.81;;;30.87;62.75
13867;BME280;7003;46.982;15.248;2023-08-20T10:00:00;97748.94;;;30.96;60.54
13867;BME280;7003;46.982;15.248;2023-08-20T10:02:29;97748.44;;;31.11;58.98
13867;BME280;7003;46.982;15.248;2023-08-20T10:04:56;97750.63;;;30.81;54.87
13867;BME280;7003;46.982;15.248;2023-08-20T10:07:30;97752.59;;;30.34;59.92
13867;BME280;7003;46.982;15.248;2023-08-20T10:10:04;97746.44;;;30.30;65.61
13867;BME280;7003;46.982;15.248;2023-08-20T10:12:36;97747.19;;;30.55;64.68
13867;BME280;7003;46.982;15.248;2023-08-20T10:15:09;97744.16;;;30.75;61.53
13867;BME280;7003;46.982;15.248;2023-08-20T10:17:38;97748.34;;;31.02;55.52
13867;BME280;7003;46.982;15.248;2023-08-20T10:20:09;97746.72;;;31.26;57.13
13867;BME280;7003;46.982;15.248;2023-08-20T10:22:41;97751.03;;;31.36;55.09
13867;BME280;7003;46.982;15.248;2023-08-20T10:25:22;97749.53;;;31.35;58.97
13867;BME280;7003;46.982;15.248;2023-08-20T10:27:49;97756.59;;;31.02;58.44
13867;BME280;7003;46.982;15.248;2023-08-20T10:30:24;97747.31;;;30.86;58.72
13867;BME280;7003;46.982;15.248;2023-08-20T10:32:53;97745.53;;;30.92;62.09
13867;BME280;7003;46.982;15.248;2023-08-20T10:35:26;97751.88;;;31.24;60.88
13867;BME280;7003;46.982;15.248;2023-08-20T10:38:03;97746.56;;;31.29;55.91
13867;BME280;7003;46.982;15.248;2023-08-20T10:40:54;97748.34;;;31.45;55.20
13867;BME280;7003;46.982;15.248;2023-08-20T10:43:29;97748.34;;;31.67;56.32
13867;BME280;7003;46.982;15.248;2023-08-20T10:46:24;97740.19;;;31.11;56.06
13867;BME280;7003;46.982;15.248;2023-08-20T10:48:53;97732.22;;;30.91;58.64
13867;BME280;7003;46.982;15.248;2023-08-20T10:51:26;97736.88;;;31.16;63.25
13867;BME280;7003;46.982;15.248;2023-08-20T10:54:05;97744.06;;;31.44;64.39
13867;BME280;7003;46.982;15.248;2023-08-20T10:56:43;97734.66;;;31.54;62.40
13867;BME280;7003;46.982;15.248;2023-08-20T10:59:14;97739.59;;;31.90;61.35
13867;BME280;7003;46.982;15.248;2023-08-20T11:01:46;97740.94;;;31.86;62.12
13867;BME280;7003;46.982;15.248;2023-08-20T11:04:18;97731.25;;;32.03;60.84
13867;BME280;7003;46.982;15.248;2023-08-20T11:06:52;97735.28;;;31.80;52.79
13867;BME280;7003;46.982;15.248;2023-08-20T11:09:23;97735.47;;;31.33;56.25
13867;BME280;7003;46.982;15.248;2023-08-20T11:11:53;97729.16;;;31.54;56.69
13867;BME280;7003;46.982;15.248;2023-08-20T11:14:22;97728.84;;;31.83;56.20
13867;BME280;7003;46.982;15.248;2023-08-20T11:16:52;97726.94;;;32.02;52.35
13867;BME280;7003;46.982;15.248;2023-08-20T11:19:23;97720.44;;;31.78;58.48
13867;BME280;7003;46.982;15.248;2023-08-20T11:21:52;97725.78;;;32.12;58.13
13867;BME280;7003;46.982;15.248;2023-08-20T11:24:22;97722.78;;;32.46;59.12
13867;BME280;7003;46.982;15.248;2023-08-20T11:26:50;97717.59;;;32.48;50.60
13867;BME280;7003;46.982;15.248;2023-08-20T11:29:24;97715.44;;;32.34;55.57
13867;BME280;7003;46.982;15.248;2023-08-20T11:31:52;97721.44;;;32.02;54.53
13867;BME280;7003;46.982;15.248;2023-08-20T11:34:24;97721.22;;;32.18;52.10
13867;BME280;7003;46.982;15.248;2023-08-20T11:36:53;97722.63;;;32.32;53.80
13867;BME280;7003;46.982;15.248;2023-08-20T11:39:23;97719.75;;;32.35;51.76
13867;BME280;7003;46.982;15.248;2023-08-20T11:41:54;97715.91;;;32.42;51.84
13867;BME280;7003;46.982;15.248;2023-08-20T11:44:23;97703.28;;;32.72;47.38
13867;BME280;7003;46.982;15.248;2023-08-20T11:46:52;97702.50;;;32.71;47.49
13867;BME280;7003;46.982;15.248;2023-08-20T11:49:27;97692.03;;;32.39;52.02
13867;BME280;7003;46.982;15.248;2023-08-20T11:51:56;97701.69;;;32.43;56.17
13867;BME280;7003;46.982;15.248;2023-08-20T11:54:24;97697.88;;;32.50;50.90
13867;BME280;7003;46.982;15.248;2023-08-20T11:56:52;97697.22;;;32.19;45.80
13867;BME280;7003;46.982;15.248;2023-08-20T11:59:33;97698.44;;;31.78;47.09
13867;BME280;7003;46.982;15.248;2023-08-20T12:02:02;97694.34;;;31.60;48.02
13867;BME280;7003;46.982;15.248;2023-08-20T12:04:33;97700.59;;;31.83;57.32
13867;BME280;7003;46.982;15.248;2023-08-20T12:07:08;97690.03;;;31.72;54.49
13867;BME280;7003;46.982;15.248;2023-08-20T12:09:38;97687.81;;;32.07;47.59
13867;BME280;7003;46.982;15.248;2023-08-20T12:12:10;97684.50;;;32.12;52.31
13867;BME280;7003;46.982;15.248;2023-08-20T12:14:39;97687.97;;;32.03;47.48
13867;BME280;7003;46.982;15.248;2023-08-20T12:17:11;97680.78;;;32.06;49.62
13867;BME280;7003;46.982;15.248;2023-08-20T12:19:38;97684.78;;;32.05;50.66
13867;BME280;7003;46.982;15.248;2023-08-20T12:22:06;97681.50;;;32.56;54.53
13867;BME280;7003;46.982;15.248;2023-08-20T12:24:35;97675.69;;;33.08;49.74
13867;BME280;7003;46.982;15.248;2023-08-20T12:27:03;97679.38;;;32.69;50.76
13867;BME280;7003;46.982;15.248;2023-08-20T12:29:33;97679.81;;;32.40;46.57
13867;BME280;7003;46.982;15.248;2023-08-20T12:32:02;97682.63;;;32.00;48.54
13867;BME280;7003;46.982;15.248;2023-08-20T12:34:33;97683.63;;;32.33;47.80
13867;BME280;7003;46.982;15.248;2023-08-20T12:37:03;97680.28;;;32.57;50.55
13867;BME280;7003;46.982;15.248;2023-08-20T12:39:30;97683.19;;;32.44;50.33
13867;BME280;7003;46.982;15.248;2023-08-20T12:41:58;97679.06;;;32.67;49.61
13867;BME280;7003;46.982;15.248;2023-08-20T12:44:25;97679.06;;;32.67;47.70
13867;BME280;7003;46.982;15.248;2023-08-20T12:46:55;97674.47;;;32.45;46.06
13867;BME280;7003;46.982;15.248;2023-08-20T12:49:26;97665.88;;;32.16;47.79
13867;BME280;7003;46.982;15.248;2023-08-20T12:51:54;97671.84;;;32.60;52.83
13867;BME280;7003;46.982;15.248;2023-08-20T12:54:23;97661.00;;;32.93;50.49
13867;BME280;7003;46.982;15.248;2023-08-20T12:57:01;97660.69;;;32.91;48.58
13867;BME280;7003;46.982;15.248;2023-08-20T12:59:36;97664.72;;;32.72;48.78
13867;BME280;7003;46.982;15.248;2023-08-20T13:02:06;97659.66;;;32.89;46.19
13867;BME280;7003;46.982;15.248;2023-08-20T13:04:39;97659.34;;;32.59;45.81
13867;BME280;7003;46.982;15.248;2023-08-20T13:07:14;97656.59;;;32.77;46.02